M\t Procida — IBJT — position and weather

sailwx.info

Track history (hours):
 
Tides and Currents Weather Stations Pressure Air Temp Water Temp Dewpoint Dewpoint Depression Visibility Wind Speed Wind Dir Waves Ship Positions

M\t Procida

Last reported at 2014-Oct-21 13:33 UTC. Time now 2014-Oct-21 13:41 UTC.
Position N 35°29' W 008°03'.

Length 149 m; draft 6.3 m.

Type: Ship (hazmat cat A). MMSI: 247258400.

Date/timePositionNaut miles runAvg speedWind from/ knotsBaromVisibWave heightAir tempDewpointWater temp
2014-Oct-21 13:33N 35°29' W 008°03'1110.5
2014-Oct-21 12:33N 35°22' W 008°13'12 6.0
2014-Oct-21 10:29N 35°31' W 008°04'1112.1
2014-Oct-21 09:33N 35°38' W 007°53'1312.6
2014-Oct-21 08:33N 35°46' W 007°40'1313.0
2014-Oct-21 07:33N 35°54' W 007°28'1312.4
2014-Oct-21 06:33N 36°03' W 007°17'1211.8
2014-Oct-21 05:33N 35°52' W 007°22'2311.6
2014-Oct-21 03:33N 35°34' W 007°41'1211.6
2014-Oct-21 02:33N 35°28' W 007°53'1211.8
2014-Oct-21 01:33N 35°22' W 008°06'1211.8
2014-Oct-21 00:32N 35°12' W 008°13'1010.6
2014-Oct-20 23:33N 35°03' W 008°19'1311.3
2014-Oct-20 22:26N 34°53' W 008°30'1011.2
2014-Oct-20 21:31N 34°43' W 008°30'1010.8
2014-Oct-20 20:33N 34°35' W 008°38'1212.0
2014-Oct-20 19:31N 34°26' W 008°48'1111.6
2014-Oct-20 18:33N 34°17' W 008°56'1211.1
2014-Oct-20 17:30N 34°06' W 009°01'3210.8
2014-Oct-20 14:33N 33°41' W 008°38'1311.5
2014-Oct-20 13:23N 33°27' W 008°40'19 0.6
2014-Oct-19 07:27N 33°08' W 008°38'10 4.3
2014-Oct-19 05:14N 33°18' W 008°40'27 7.4
2014-Oct-19 01:33N 33°44' W 008°30'199 9.9
2014-Oct-18 05:33N 35°58' W 005°32'9 9.3
2014-Oct-18 04:33N 36°05' W 005°23'3 0.2
2014-Oct-17 08:33N 36°08' W 005°22'3 3.3
2014-Oct-17 07:33N 36°05' W 005°20'7 6.9
2014-Oct-17 06:33N 36°07' W 005°12'5 5.4
2014-Oct-17 05:34N 36°09' W 005°06'1 0.5
2014-Oct-17 02:33N 36°09' W 005°04'5 4.7
2014-Oct-17 01:33N 36°12' W 005°08'0 0.4
2014-Oct-17 00:30N 36°12' W 005°08'0 0.4
2014-Oct-16 23:13N 36°12' W 005°08'0 0.5
2014-Oct-16 22:18N 36°12' W 005°07'1 0.4
2014-Oct-16 19:33N 36°10' W 005°07'1 0.6
2014-Oct-16 18:06N 36°10' W 005°08'0 0.8
2014-Oct-16 17:31N 36°09' W 005°08'19311.4
2014-Oct-16 00:34N 37°04' W 001°17'1312.4
2014-Oct-15 23:31N 37°13' W 001°05'1312.4
2014-Oct-15 22:30N 37°21' W 000°53'1212.7
2014-Oct-15 21:33N 37°29' W 000°42'1212.4
2014-Oct-15 20:33N 37°38' W 000°31'1212.3
2014-Oct-15 19:33N 37°49' W 000°25'1212.0
2014-Oct-15 18:33N 38°00' W 000°19'1211.5
2014-Oct-15 17:33N 38°09' W 000°10'7510.4
2014-Oct-15 10:17N 39°25' W 000°08'7 9.3
2014-Oct-15 09:33N 39°24' W 000°17'0 0.1
2014-Oct-15 08:31N 39°24' W 000°17'0 0.0
2014-Oct-15 07:31N 39°24' W 000°17'0 0.0
2014-Oct-15 06:16N 39°24' W 000°17'0 0.0
2014-Oct-15 05:28N 39°24' W 000°17'0 0.0
2014-Oct-15 04:28N 39°24' W 000°17'0 0.0
2014-Oct-15 03:31N 39°24' W 000°17'0 0.0
2014-Oct-15 02:28N 39°24' W 000°17'0 0.0
2014-Oct-15 01:28N 39°24' W 000°17'0 0.0
2014-Oct-15 00:31N 39°24' W 000°17'0 0.1
2014-Oct-14 23:26N 39°24' W 000°17'5 6.1
2014-Oct-14 22:33N 39°24' W 000°10'5911.8
2014-Oct-14 17:33N 39°54' E 000°56'1212.3
2014-Oct-14 16:33N 40°06' E 000°58'1212.2
2014-Oct-14 15:33N 40°18' E 001°01'1312.3
2014-Oct-14 14:30N 40°31' E 001°04'2912.0
2014-Oct-14 12:06N 40°59' E 001°11'610.3
2014-Oct-14 11:30N 41°05' E 001°13'1 0.0
2014-Oct-13 01:26N 41°06' E 001°13'3 0.6
2014-Oct-12 20:11N 41°04' E 001°16'0 0.0
2014-Oct-12 16:19N 41°04' E 001°16'0 0.0
2014-Oct-12 15:29N 41°04' E 001°16'0 0.0
2014-Oct-12 14:29N 41°04' E 001°16'0 0.0
2014-Oct-12 13:20N 41°04' E 001°16'0 0.0
2014-Oct-12 10:04N 41°04' E 001°16'0 0.8
2014-Oct-12 09:34N 41°04' E 001°16'1211.6
2014-Oct-12 08:29N 40°58' E 001°31'1112.2
2014-Oct-12 07:33N 40°54' E 001°45'1312.6
2014-Oct-12 06:33N 40°49' E 002°00'1111.4
2014-Oct-12 05:33N 40°45' E 002°14'1111.0
2014-Oct-12 04:33N 40°41' E 002°28'1111.2
2014-Oct-12 03:33N 40°37' E 002°42'1110.8
2014-Oct-12 02:33N 40°33' E 002°55'1111.1
2014-Oct-12 01:33N 40°30' E 003°09'1211.5
2014-Oct-12 00:33N 40°25' E 003°23'1511.4
2014-Oct-11 23:15N 40°24' E 003°42'4511.2
2014-Oct-11 19:11N 40°24' E 004°42'811.6
2014-Oct-11 18:31N 40°24' E 004°52'3511.6
2014-Oct-11 15:31N 40°21' E 005°38'  
Track history (hours):
 
Tides and Currents Weather Stations Pressure Air Temp Water Temp Dewpoint Dewpoint Depression Visibility Wind Speed Wind Dir Waves Ship Positions

M\t Procida

Last reported at 2014-Oct-21 13:33 UTC. Time now 2014-Oct-21 13:41 UTC.
Position N 35°29' W 008°03'.

Length 149 m; draft 6.3 m.

Type: Ship (hazmat cat A). MMSI: 247258400.

Date/timePositionNaut miles runAvg speedWind from/ knotsBaromVisibWave heightAir tempDewpointWater temp
2014-Oct-21 13:33N 35°29' W 008°03'1110.5
2014-Oct-21 12:33N 35°22' W 008°13'12 6.0
2014-Oct-21 10:29N 35°31' W 008°04'1112.1
2014-Oct-21 09:33N 35°38' W 007°53'1312.6
2014-Oct-21 08:33N 35°46' W 007°40'1313.0
2014-Oct-21 07:33N 35°54' W 007°28'1312.4
2014-Oct-21 06:33N 36°03' W 007°17'1211.8
2014-Oct-21 05:33N 35°52' W 007°22'2311.6
2014-Oct-21 03:33N 35°34' W 007°41'1211.6
2014-Oct-21 02:33N 35°28' W 007°53'1211.8
2014-Oct-21 01:33N 35°22' W 008°06'1211.8
2014-Oct-21 00:32N 35°12' W 008°13'1010.6
2014-Oct-20 23:33N 35°03' W 008°19'1311.3
2014-Oct-20 22:26N 34°53' W 008°30'1011.2
2014-Oct-20 21:31N 34°43' W 008°30'1010.8
2014-Oct-20 20:33N 34°35' W 008°38'1212.0
2014-Oct-20 19:31N 34°26' W 008°48'1111.6
2014-Oct-20 18:33N 34°17' W 008°56'1211.1
2014-Oct-20 17:30N 34°06' W 009°01'3210.8
2014-Oct-20 14:33N 33°41' W 008°38'1311.5
2014-Oct-20 13:23N 33°27' W 008°40'19 0.6
2014-Oct-19 07:27N 33°08' W 008°38'10 4.3
2014-Oct-19 05:14N 33°18' W 008°40'27 7.4
2014-Oct-19 01:33N 33°44' W 008°30'199 9.9
2014-Oct-18 05:33N 35°58' W 005°32'9 9.3
2014-Oct-18 04:33N 36°05' W 005°23'3 0.2
2014-Oct-17 08:33N 36°08' W 005°22'3 3.3
2014-Oct-17 07:33N 36°05' W 005°20'7 6.9
2014-Oct-17 06:33N 36°07' W 005°12'5 5.4
2014-Oct-17 05:34N 36°09' W 005°06'1 0.5
2014-Oct-17 02:33N 36°09' W 005°04'5 4.7
2014-Oct-17 01:33N 36°12' W 005°08'0 0.4
2014-Oct-17 00:30N 36°12' W 005°08'0 0.4
2014-Oct-16 23:13N 36°12' W 005°08'0 0.5
2014-Oct-16 22:18N 36°12' W 005°07'1 0.4
2014-Oct-16 19:33N 36°10' W 005°07'1 0.6
2014-Oct-16 18:06N 36°10' W 005°08'0 0.8
2014-Oct-16 17:31N 36°09' W 005°08'19311.4
2014-Oct-16 00:34N 37°04' W 001°17'1312.4
2014-Oct-15 23:31N 37°13' W 001°05'1312.4
2014-Oct-15 22:30N 37°21' W 000°53'1212.7
2014-Oct-15 21:33N 37°29' W 000°42'1212.4
2014-Oct-15 20:33N 37°38' W 000°31'1212.3
2014-Oct-15 19:33N 37°49' W 000°25'1212.0
2014-Oct-15 18:33N 38°00' W 000°19'1211.5
2014-Oct-15 17:33N 38°09' W 000°10'7510.4
2014-Oct-15 10:17N 39°25' W 000°08'7 9.3
2014-Oct-15 09:33N 39°24' W 000°17'0 0.1
2014-Oct-15 08:31N 39°24' W 000°17'0 0.0
2014-Oct-15 07:31N 39°24' W 000°17'0 0.0
2014-Oct-15 06:16N 39°24' W 000°17'0 0.0
2014-Oct-15 05:28N 39°24' W 000°17'0 0.0
2014-Oct-15 04:28N 39°24' W 000°17'0 0.0
2014-Oct-15 03:31N 39°24' W 000°17'0 0.0
2014-Oct-15 02:28N 39°24' W 000°17'0 0.0
2014-Oct-15 01:28N 39°24' W 000°17'0 0.0
2014-Oct-15 00:31N 39°24' W 000°17'0 0.1
2014-Oct-14 23:26N 39°24' W 000°17'5 6.1
2014-Oct-14 22:33N 39°24' W 000°10'5911.8
2014-Oct-14 17:33N 39°54' E 000°56'1212.3
2014-Oct-14 16:33N 40°06' E 000°58'1212.2
2014-Oct-14 15:33N 40°18' E 001°01'1312.3
2014-Oct-14 14:30N 40°31' E 001°04'2912.0
2014-Oct-14 12:06N 40°59' E 001°11'610.3
2014-Oct-14 11:30N 41°05' E 001°13'1 0.0
2014-Oct-13 01:26N 41°06' E 001°13'3 0.6
2014-Oct-12 20:11N 41°04' E 001°16'0 0.0
2014-Oct-12 16:19N 41°04' E 001°16'0 0.0
2014-Oct-12 15:29N 41°04' E 001°16'0 0.0
2014-Oct-12 14:29N 41°04' E 001°16'0 0.0
2014-Oct-12 13:20N 41°04' E 001°16'0 0.0
2014-Oct-12 10:04N 41°04' E 001°16'0 0.8
2014-Oct-12 09:34N 41°04' E 001°16'1211.6
2014-Oct-12 08:29N 40°58' E 001°31'1112.2
2014-Oct-12 07:33N 40°54' E 001°45'1312.6
2014-Oct-12 06:33N 40°49' E 002°00'1111.4
2014-Oct-12 05:33N 40°45' E 002°14'1111.0
2014-Oct-12 04:33N 40°41' E 002°28'1111.2
2014-Oct-12 03:33N 40°37' E 002°42'1110.8
2014-Oct-12 02:33N 40°33' E 002°55'1111.1
2014-Oct-12 01:33N 40°30' E 003°09'1211.5
2014-Oct-12 00:33N 40°25' E 003°23'1511.4
2014-Oct-11 23:15N 40°24' E 003°42'4511.2
2014-Oct-11 19:11N 40°24' E 004°42'811.6
2014-Oct-11 18:31N 40°24' E 004°52'3511.6
2014-Oct-11 15:31N 40°21' E 005°38'  

Dump ship's entire track history